sensor_id;sensor_type;location;lat;lon;timestamp;temperature;humidity
30889;DHT22;51092;50.874;7.024;2022-12-29T00:00:30;11.80;99.90
30889;DHT22;51092;50.874;7.024;2022-12-29T00:01:33;11.80;99.90
30889;DHT22;51092;50.874;7.024;2022-12-29T00:02:35;11.70;99.90
30889;DHT22;51092;50.874;7.024;2022-12-29T00:03:39;11.70;99.90
30889;DHT22;51092;50.874;7.024;2022-12-29T00:04:40;11.70;99.90
30889;DHT22;51092;50.874;7.024;2022-12-29T00:05:43;11.60;99.90
30889;DHT22;51092;50.874;7.024;2022-12-29T00:06:44;11.60;99.90
30889;DHT22;51092;50.874;7.024;2022-12-29T00:07:47;11.60;99.90
30889;DHT22;51092;50.874;7.024;2022-12-29T00:08:51;11.60;99.90
30889;DHT22;51092;50.874;7.024;2022-12-29T00:09:53;11.60;99.90
30889;DHT22;51092;50.874;7.024;2022-12-29T00:10:55;11.50;99.90
30889;DHT22;51092;50.874;7.024;2022-12-29T00:11:58;11.60;99.90
30889;DHT22;51092;50.874;7.024;2022-12-29T00:13:00;11.60;99.90
30889;DHT22;51092;50.874;7.024;2022-12-29T00:14:20;11.50;99.90
30889;DHT22;51092;50.874;7.024;2022-12-29T00:15:39;11.50;99.90
30889;DHT22;51092;50.874;7.024;2022-12-29T00:16:44;11.60;99.90
30889;DHT22;51092;50.874;7.024;2022-12-29T00:17:49;11.60;99.90
30889;DHT22;51092;50.874;7.024;2022-12-29T00:18:51;11.60;99.90
30889;DHT22;51092;50.874;7.024;2022-12-29T00:19:53;11.60;99.90
30889;DHT22;51092;50.874;7.024;2022-12-29T00:21:17;11.60;99.90
30889;DHT22;51092;50.874;7.024;2022-12-29T00:22:38;11.70;99.90
30889;DHT22;51092;50.874;7.024;2022-12-29T00:23:58;11.70;99.90
30889;DHT22;51092;50.874;7.024;2022-12-29T00:25:26;11.70;99.90
30889;DHT22;51092;50.874;7.024;2022-12-29T00:26:47;11.70;99.90
30889;DHT22;51092;50.874;7.024;2022-12-29T00:28:08;11.80;99.90
30889;DHT22;51092;50.874;7.024;2022-12-29T00:29:28;11.80;99.90
30889;DHT22;51092;50.874;7.024;2022-12-29T00:30:50;11.80;99.90
30889;DHT22;51092;50.874;7.024;2022-12-29T00:32:10;11.90;99.90
30889;DHT22;51092;50.874;7.024;2022-12-29T00:33:32;11.90;99.90
30889;DHT22;51092;50.874;7.024;2022-12-29T00:34:52;11.90;99.90
30889;DHT22;51092;50.874;7.024;2022-12-29T00:36:17;11.80;99.90
30889;DHT22;51092;50.874;7.024;2022-12-29T00:37:19;11.90;99.90
30889;DHT22;51092;50.874;7.024;2022-12-29T00:38:46;11.90;99.90
30889;DHT22;51092;50.874;7.024;2022-12-29T00:40:07;11.80;99.90
30889;DHT22;51092;50.874;7.024;2022-12-29T00:41:33;11.90;99.90
30889;DHT22;51092;50.874;7.024;2022-12-29T00:42:53;11.90;99.90
30889;DHT22;51092;50.874;7.024;2022-12-29T00:44:13;12.00;99.90
30889;DHT22;51092;50.874;7.024;2022-12-29T00:45:16;12.00;99.90
30889;DHT22;51092;50.874;7.024;2022-12-29T00:46:17;12.00;99.90
30889;DHT22;51092;50.874;7.024;2022-12-29T00:47:20;12.10;99.90
30889;DHT22;51092;50.874;7.024;2022-12-29T00:48:22;12.00;99.90
30889;DHT22;51092;50.874;7.024;2022-12-29T00:49:38;12.00;99.90
30889;DHT22;51092;50.874;7.024;2022-12-29T00:50:41;12.10;99.90
30889;DHT22;51092;50.874;7.024;2022-12-29T00:51:44;12.10;99.90
30889;DHT22;51092;50.874;7.024;2022-12-29T00:52:45;12.10;99.90
30889;DHT22;51092;50.874;7.024;2022-12-29T00:53:48;12.10;99.90
30889;DHT22;51092;50.874;7.024;2022-12-29T00:54:49;12.10;99.90
30889;DHT22;51092;50.874;7.024;2022-12-29T00:55:52;12.20;99.90
30889;DHT22;51092;50.874;7.024;2022-12-29T00:56:53;12.20;99.90
30889;DHT22;51092;50.874;7.024;2022-12-29T00:57:56;12.20;99.90
30889;DHT22;51092;50.874;7.024;2022-12-29T00:59:00;12.20;99.90
30889;DHT22;51092;50.874;7.024;2022-12-29T01:00:03;12.20;99.90
30889;DHT22;51092;50.874;7.024;2022-12-29T01:01:06;12.20;99.90
30889;DHT22;51092;50.874;7.024;2022-12-29T01:02:11;12.20;99.90
30889;DHT22;51092;50.874;7.024;2022-12-29T01:03:13;12.30;99.90
30889;DHT22;51092;50.874;7.024;2022-12-29T01:04:18;12.30;99.90
30889;DHT22;51092;50.874;7.024;2022-12-29T01:05:21;12.30;99.90
30889;DHT22;51092;50.874;7.024;2022-12-29T01:06:23;12.30;99.90
30889;DHT22;51092;50.874;7.024;2022-12-29T01:07:26;12.30;99.90
30889;DHT22;51092;50.874;7.024;2022-12-29T01:08:30;12.30;99.90
30889;DHT22;51092;50.874;7.024;2022-12-29T01:09:32;12.30;99.90
30889;DHT22;51092;50.874;7.024;2022-12-29T01:11:03;12.20;99.90
30889;DHT22;51092;50.874;7.024;2022-12-29T01:12:07;12.20;99.90
30889;DHT22;51092;50.874;7.024;2022-12-29T01:13:09;12.20;99.90
30889;DHT22;51092;50.874;7.024;2022-12-29T01:14:13;12.20;99.90
30889;DHT22;51092;50.874;7.024;2022-12-29T01:15:14;12.20;99.90
30889;DHT22;51092;50.874;7.024;2022-12-29T01:16:17;12.20;99.90
30889;DHT22;51092;50.874;7.024;2022-12-29T01:17:19;12.20;99.90
30889;DHT22;51092;50.874;7.024;2022-12-29T01:18:22;12.20;99.90
30889;DHT22;51092;50.874;7.024;2022-12-29T01:19:25;12.20;99.90
30889;DHT22;51092;50.874;7.024;2022-12-29T01:20:29;12.30;99.90
30889;DHT22;51092;50.874;7.024;2022-12-29T01:21:32;12.30;99.90
30889;DHT22;51092;50.874;7.024;2022-12-29T01:22:36;12.30;99.90
30889;DHT22;51092;50.874;7.024;2022-12-29T01:23:37;12.30;99.90
30889;DHT22;51092;50.874;7.024;2022-12-29T01:24:40;12.30;99.90
30889;DHT22;51092;50.874;7.024;2022-12-29T01:25:41;12.30;99.90
30889;DHT22;51092;50.874;7.024;2022-12-29T01:26:44;12.40;99.90
30889;DHT22;51092;50.874;7.024;2022-12-29T01:27:45;12.40;99.90
30889;DHT22;51092;50.874;7.024;2022-12-29T01:28:48;12.50;99.90
30889;DHT22;51092;50.874;7.024;2022-12-29T01:29:49;12.50;99.90
30889;DHT22;51092;50.874;7.024;2022-12-29T01:30:52;12.50;99.90
30889;DHT22;51092;50.874;7.024;2022-12-29T01:31:54;12.60;99.90
30889;DHT22;51092;50.874;7.024;2022-12-29T01:32:56;12.50;99.90
30889;DHT22;51092;50.874;7.024;2022-12-29T01:33:58;12.50;99.90
30889;DHT22;51092;50.874;7.024;2022-12-29T01:35:00;12.60;99.90
30889;DHT22;51092;50.874;7.024;2022-12-29T01:36:02;12.60;99.90
30889;DHT22;51092;50.874;7.024;2022-12-29T01:37:05;12.60;99.90
30889;DHT22;51092;50.874;7.024;2022-12-29T01:38:08;12.60;99.90
30889;DHT22;51092;50.874;7.024;2022-12-29T01:39:11;12.70;99.90
30889;DHT22;51092;50.874;7.024;2022-12-29T01:40:12;12.60;99.90
30889;DHT22;51092;50.874;7.024;2022-12-29T01:41:16;12.60;99.90
30889;DHT22;51092;50.874;7.024;2022-12-29T01:42:19;12.60;99.90
30889;DHT22;51092;50.874;7.024;2022-12-29T01:43:39;12.70;99.90
30889;DHT22;51092;50.874;7.024;2022-12-29T01:44:53;12.70;98.50
30889;DHT22;51092;50.874;7.024;2022-12-29T01:45:56;12.70;98.20
30889;DHT22;51092;50.874;7.024;2022-12-29T01:46:58;12.80;97.20
30889;DHT22;51092;50.874;7.024;2022-12-29T01:48:03;12.80;94.80
30889;DHT22;51092;50.874;7.024;2022-12-29T01:49:11;12.90;94.10
30889;DHT22;51092;50.874;7.024;2022-12-29T01:50:19;12.90;93.50
30889;DHT22;51092;50.874;7.024;2022-12-29T01:51:23;13.00;92.00
30889;DHT22;51092;50.874;7.024;2022-12-29T01:52:29;13.00;92.20
30889;DHT22;51092;50.874;7.024;2022-12-29T01:53:33;13.00;91.80
30889;DHT22;51092;50.874;7.024;2022-12-29T01:54:39;13.00;91.90
30889;DHT22;51092;50.874;7.024;2022-12-29T01:55:46;13.00;91.70
30889;DHT22;51092;50.874;7.024;2022-12-29T01:56:51;13.10;91.50
30889;DHT22;51092;50.874;7.024;2022-12-29T01:57:54;13.00;91.20
30889;DHT22;51092;50.874;7.024;2022-12-29T01:59:02;13.00;90.70
30889;DHT22;51092;50.874;7.024;2022-12-29T02:00:08;13.10;90.50
30889;DHT22;51092;50.874;7.024;2022-12-29T02:01:15;13.00;90.80
30889;DHT22;51092;50.874;7.024;2022-12-29T02:02:18;13.00;90.30
30889;DHT22;51092;50.874;7.024;2022-12-29T02:03:22;13.00;90.60
30889;DHT22;51092;50.874;7.024;2022-12-29T02:04:27;13.10;90.30
30889;DHT22;51092;50.874;7.024;2022-12-29T02:05:35;13.20;89.30
30889;DHT22;51092;50.874;7.024;2022-12-29T02:06:41;13.10;90.00
30889;DHT22;51092;50.874;7.024;2022-12-29T02:07:46;13.10;90.00
30889;DHT22;51092;50.874;7.024;2022-12-29T02:08:53;13.00;90.30
30889;DHT22;51092;50.874;7.024;2022-12-29T02:09:56;13.00;90.30
30889;DHT22;51092;50.874;7.024;2022-12-29T02:10:59;13.00;90.30
30889;DHT22;51092;50.874;7.024;2022-12-29T02:12:03;13.10;90.10
30889;DHT22;51092;50.874;7.024;2022-12-29T02:13:05;13.00;90.00
30889;DHT22;51092;50.874;7.024;2022-12-29T02:14:09;13.00;89.90
30889;DHT22;51092;50.874;7.024;2022-12-29T02:15:11;13.00;90.20
30889;DHT22;51092;50.874;7.024;2022-12-29T02:16:21;13.00;90.20
30889;DHT22;51092;50.874;7.024;2022-12-29T02:17:41;12.90;90.40
30889;DHT22;51092;50.874;7.024;2022-12-29T02:18:54;13.00;90.20
30889;DHT22;51092;50.874;7.024;2022-12-29T02:20:29;12.90;90.80
30889;DHT22;51092;50.874;7.024;2022-12-29T02:21:54;12.90;90.80
30889;DHT22;51092;50.874;7.024;2022-12-29T02:23:14;12.90;90.80
30889;DHT22;51092;50.874;7.024;2022-12-29T02:24:37;12.90;91.20
30889;DHT22;51092;50.874;7.024;2022-12-29T02:25:57;12.90;91.10
30889;DHT22;51092;50.874;7.024;2022-12-29T02:29:19;12.90;91.30
30889;DHT22;51092;50.874;7.024;2022-12-29T02:30:46;12.90;91.40
30889;DHT22;51092;50.874;7.024;2022-12-29T02:31:57;12.90;90.90
30889;DHT22;51092;50.874;7.024;2022-12-29T02:33:04;12.80;91.50
30889;DHT22;51092;50.874;7.024;2022-12-29T02:34:20;12.80;91.80
30889;DHT22;51092;50.874;7.024;2022-12-29T02:35:30;12.80;91.20
30889;DHT22;51092;50.874;7.024;2022-12-29T02:36:42;12.80;91.30
30889;DHT22;51092;50.874;7.024;2022-12-29T02:37:55;12.80;91.20
30889;DHT22;51092;50.874;7.024;2022-12-29T02:39:04;12.80;91.80
30889;DHT22;51092;50.874;7.024;2022-12-29T02:40:15;12.80;91.70
30889;DHT22;51092;50.874;7.024;2022-12-29T02:41:21;12.80;91.90
30889;DHT22;51092;50.874;7.024;2022-12-29T02:42:33;12.80;92.00
30889;DHT22;51092;50.874;7.024;2022-12-29T02:43:39;12.80;91.70
30889;DHT22;51092;50.874;7.024;2022-12-29T02:44:49;12.80;91.90
30889;DHT22;51092;50.874;7.024;2022-12-29T02:45:59;12.80;91.80
30889;DHT22;51092;50.874;7.024;2022-12-29T02:47:07;12.80;91.50
30889;DHT22;51092;50.874;7.024;2022-12-29T02:48:17;12.90;91.50
30889;DHT22;51092;50.874;7.024;2022-12-29T02:49:25;12.90;91.70
30889;DHT22;51092;50.874;7.024;2022-12-29T02:50:34;12.90;91.80
30889;DHT22;51092;50.874;7.024;2022-12-29T02:51:44;12.90;91.60
30889;DHT22;51092;50.874;7.024;2022-12-29T02:52:51;12.90;91.90
30889;DHT22;51092;50.874;7.024;2022-12-29T02:53:56;12.90;92.30
30889;DHT22;51092;50.874;7.024;2022-12-29T02:55:18;12.90;92.20
30889;DHT22;51092;50.874;7.024;2022-12-29T02:56:20;12.90;92.30
30889;DHT22;51092;50.874;7.024;2022-12-29T02:57:30;12.90;93.40
30889;DHT22;51092;50.874;7.024;2022-12-29T02:58:33;12.80;94.30
30889;DHT22;51092;50.874;7.024;2022-12-29T02:59:35;12.80;95.70
30889;DHT22;51092;50.874;7.024;2022-12-29T03:00:41;12.70;96.40
30889;DHT22;51092;50.874;7.024;2022-12-29T03:02:03;12.70;97.30
30889;DHT22;51092;50.874;7.024;2022-12-29T03:03:32;12.70;98.00
30889;DHT22;51092;50.874;7.024;2022-12-29T03:04:43;12.60;99.70
30889;DHT22;51092;50.874;7.024;2022-12-29T03:06:00;12.60;99.60
30889;DHT22;51092;50.874;7.024;2022-12-29T03:07:09;12.70;99.50
30889;DHT22;51092;50.874;7.024;2022-12-29T03:08:21;12.70;99.90
30889;DHT22;51092;50.874;7.024;2022-12-29T03:09:34;12.70;99.90
30889;DHT22;51092;50.874;7.024;2022-12-29T03:10:41;12.70;99.90
30889;DHT22;51092;50.874;7.024;2022-12-29T03:11:54;12.80;99.70
30889;DHT22;51092;50.874;7.024;2022-12-29T03:13:19;12.70;99.90
30889;DHT22;51092;50.874;7.024;2022-12-29T03:15:00;12.70;99.90
30889;DHT22;51092;50.874;7.024;2022-12-29T03:16:24;12.70;99.90
30889;DHT22;51092;50.874;7.024;2022-12-29T03:17:37;12.70;99.90
30889;DHT22;51092;50.874;7.024;2022-12-29T03:18:47;12.70;99.90
30889;DHT22;51092;50.874;7.024;2022-12-29T03:19:52;12.70;99.90
30889;DHT22;51092;50.874;7.024;2022-12-29T03:21:03;12.60;99.90
30889;DHT22;51092;50.874;7.024;2022-12-29T03:22:09;12.70;99.90
30889;DHT22;51092;50.874;7.024;2022-12-29T03:23:33;12.70;99.90
30889;DHT22;51092;50.874;7.024;2022-12-29T03:24:39;12.70;99.90
30889;DHT22;51092;50.874;7.024;2022-12-29T03:25:46;12.80;99.90
30889;DHT22;51092;50.874;7.024;2022-12-29T03:26:49;12.70;99.90
30889;DHT22;51092;50.874;7.024;2022-12-29T03:27:57;12.70;99.90
30889;DHT22;51092;50.874;7.024;2022-12-29T03:29:00;12.70;99.90
30889;DHT22;51092;50.874;7.024;2022-12-29T03:30:04;12.70;99.90
30889;DHT22;51092;50.874;7.024;2022-12-29T03:31:08;12.70;99.90
30889;DHT22;51092;50.874;7.024;2022-12-29T03:32:13;12.70;99.90
30889;DHT22;51092;50.874;7.024;2022-12-29T03:33:21;12.70;99.90
30889;DHT22;51092;50.874;7.024;2022-12-29T03:34:25;12.70;99.90
30889;DHT22;51092;50.874;7.024;2022-12-29T03:35:31;12.70;99.90
30889;DHT22;51092;50.874;7.024;2022-12-29T03:36:42;12.70;99.90
30889;DHT22;51092;50.874;7.024;2022-12-29T03:37:49;12.70;99.90
30889;DHT22;51092;50.874;7.024;2022-12-29T03:38:59;12.70;99.90
30889;DHT22;51092;50.874;7.024;2022-12-29T03:40:02;12.70;99.90
30889;DHT22;51092;50.874;7.024;2022-12-29T03:41:10;12.70;99.90
30889;DHT22;51092;50.874;7.024;2022-12-29T03:42:15;12.70;99.90
30889;DHT22;51092;50.874;7.024;2022-12-29T03:43:20;12.70;99.90
30889;DHT22;51092;50.874;7.024;2022-12-29T03:44:21;12.70;99.90
30889;DHT22;51092;50.874;7.024;2022-12-29T03:45:33;12.70;99.90
30889;DHT22;51092;50.874;7.024;2022-12-29T03:46:34;12.70;99.90
30889;DHT22;51092;50.874;7.024;2022-12-29T03:47:37;12.70;99.90
30889;DHT22;51092;50.874;7.024;2022-12-29T03:48:41;12.70;99.90
30889;DHT22;51092;50.874;7.024;2022-12-29T03:49:43;12.70;99.90
30889;DHT22;51092;50.874;7.024;2022-12-29T03:50:46;12.70;99.90
30889;DHT22;51092;50.874;7.024;2022-12-29T03:51:49;12.70;99.90
30889;DHT22;51092;50.874;7.024;2022-12-29T03:52:50;12.70;99.90
30889;DHT22;51092;50.874;7.024;2022-12-29T03:53:53;12.70;99.90
30889;DHT22;51092;50.874;7.024;2022-12-29T03:54:54;12.70;99.90
30889;DHT22;51092;50.874;7.024;2022-12-29T03:55:57;12.70;99.90
30889;DHT22;51092;50.874;7.024;2022-12-29T03:56:58;12.60;99.90
30889;DHT22;51092;50.874;7.024;2022-12-29T03:58:01;12.60;99.90
30889;DHT22;51092;50.874;7.024;2022-12-29T03:59:02;12.60;99.90
30889;DHT22;51092;50.874;7.024;2022-12-29T04:00:06;12.60;99.90
30889;DHT22;51092;50.874;7.024;2022-12-29T04:01:08;12.60;99.90
30889;DHT22;51092;50.874;7.024;2022-12-29T04:02:11;12.60;99.90
30889;DHT22;51092;50.874;7.024;2022-12-29T04:03:12;12.50;99.90
30889;DHT22;51092;50.874;7.024;2022-12-29T04:04:16;12.50;99.90
30889;DHT22;51092;50.874;7.024;2022-12-29T04:05:18;12.50;99.90
30889;DHT22;51092;50.874;7.024;2022-12-29T04:06:20;12.50;99.90
30889;DHT22;51092;50.874;7.024;2022-12-29T04:07:21;12.50;99.90
30889;DHT22;51092;50.874;7.024;2022-12-29T04:08:23;12.50;99.90
30889;DHT22;51092;50.874;7.024;2022-12-29T04:09:24;12.50;99.90
30889;DHT22;51092;50.874;7.024;2022-12-29T04:10:27;12.50;99.90
30889;DHT22;51092;50.874;7.024;2022-12-29T04:11:29;12.50;99.90
30889;DHT22;51092;50.874;7.024;2022-12-29T04:12:31;12.50;99.90
30889;DHT22;51092;50.874;7.024;2022-12-29T04:13:33;12.50;99.90
30889;DHT22;51092;50.874;7.024;2022-12-29T04:14:35;12.50;99.90
30889;DHT22;51092;50.874;7.024;2022-12-29T04:15:36;12.50;99.90
30889;DHT22;51092;50.874;7.024;2022-12-29T04:16:39;12.50;99.90
30889;DHT22;51092;50.874;7.024;2022-12-29T04:17:40;12.50;99.90
30889;DHT22;51092;50.874;7.024;2022-12-29T04:18:42;12.50;99.90
30889;DHT22;51092;50.874;7.024;2022-12-29T04:19:45;12.50;99.90
30889;DHT22;51092;50.874;7.024;2022-12-29T04:20:47;12.50;99.90
30889;DHT22;51092;50.874;7.024;2022-12-29T04:22:01;12.50;99.90
30889;DHT22;51092;50.874;7.024;2022-12-29T04:23:04;12.50;99.90
30889;DHT22;51092;50.874;7.024;2022-12-29T04:24:07;12.40;99.90
30889;DHT22;51092;50.874;7.024;2022-12-29T04:25:09;12.60;98.50
30889;DHT22;51092;50.874;7.024;2022-12-29T04:26:11;12.50;98.80
30889;DHT22;51092;50.874;7.024;2022-12-29T04:27:14;12.50;98.60
30889;DHT22;51092;50.874;7.024;2022-12-29T04:28:16;12.50;99.20
30889;DHT22;51092;50.874;7.024;2022-12-29T04:29:18;12.60;98.40
30889;DHT22;51092;50.874;7.024;2022-12-29T04:30:20;12.50;98.90
30889;DHT22;51092;50.874;7.024;2022-12-29T04:31:22;12.50;97.90
30889;DHT22;51092;50.874;7.024;2022-12-29T04:32:24;12.50;97.30
30889;DHT22;51092;50.874;7.024;2022-12-29T04:33:26;12.50;97.30
30889;DHT22;51092;50.874;7.024;2022-12-29T04:34:28;12.60;96.70
30889;DHT22;51092;50.874;7.024;2022-12-29T04:35:32;12.60;96.50
30889;DHT22;51092;50.874;7.024;2022-12-29T04:36:34;12.50;97.20
30889;DHT22;51092;50.874;7.024;2022-12-29T04:37:37;12.50;97.20
30889;DHT22;51092;50.874;7.024;2022-12-29T04:38:39;12.50;96.70
30889;DHT22;51092;50.874;7.024;2022-12-29T04:39:40;12.50;97.10
30889;DHT22;51092;50.874;7.024;2022-12-29T04:40:44;12.50;97.30
30889;DHT22;51092;50.874;7.024;2022-12-29T04:41:45;12.50;96.30
30889;DHT22;51092;50.874;7.024;2022-12-29T04:42:48;12.50;95.80
30889;DHT22;51092;50.874;7.024;2022-12-29T04:43:50;12.50;95.30
30889;DHT22;51092;50.874;7.024;2022-12-29T04:44:53;12.50;95.60
30889;DHT22;51092;50.874;7.024;2022-12-29T04:45:55;12.60;94.90
30889;DHT22;51092;50.874;7.024;2022-12-29T04:46:57;12.60;94.20
30889;DHT22;51092;50.874;7.024;2022-12-29T04:47:59;12.60;94.30
30889;DHT22;51092;50.874;7.024;2022-12-29T04:49:01;12.70;94.00
30889;DHT22;51092;50.874;7.024;2022-12-29T04:50:12;12.60;94.00
30889;DHT22;51092;50.874;7.024;2022-12-29T04:51:16;12.70;93.40
30889;DHT22;51092;50.874;7.024;2022-12-29T04:52:18;12.70;93.10
30889;DHT22;51092;50.874;7.024;2022-12-29T04:53:20;12.70;92.80
30889;DHT22;51092;50.874;7.024;2022-12-29T04:54:22;12.70;92.80
30889;DHT22;51092;50.874;7.024;2022-12-29T04:55:24;12.70;92.70
30889;DHT22;51092;50.874;7.024;2022-12-29T04:56:25;12.70;92.60
30889;DHT22;51092;50.874;7.024;2022-12-29T04:57:27;12.80;92.60
30889;DHT22;51092;50.874;7.024;2022-12-29T04:58:28;12.80;92.20
30889;DHT22;51092;50.874;7.024;2022-12-29T04:59:31;12.80;91.60
30889;DHT22;51092;50.874;7.024;2022-12-29T05:00:33;12.80;91.70
30889;DHT22;51092;50.874;7.024;2022-12-29T05:01:35;12.80;91.10
30889;DHT22;51092;50.874;7.024;2022-12-29T05:02:37;12.90;91.00
30889;DHT22;51092;50.874;7.024;2022-12-29T05:03:40;12.90;90.90
30889;DHT22;51092;50.874;7.024;2022-12-29T05:04:41;12.90;91.10
30889;DHT22;51092;50.874;7.024;2022-12-29T05:05:44;12.90;90.80
30889;DHT22;51092;50.874;7.024;2022-12-29T05:06:47;12.90;90.70
30889;DHT22;51092;50.874;7.024;2022-12-29T05:07:50;12.90;90.80
30889;DHT22;51092;50.874;7.024;2022-12-29T05:08:51;12.90;90.70
30889;DHT22;51092;50.874;7.024;2022-12-29T05:09:54;12.90;90.80
30889;DHT22;51092;50.874;7.024;2022-12-29T05:10:55;12.90;90.60
30889;DHT22;51092;50.874;7.024;2022-12-29T05:11:58;12.90;90.90
30889;DHT22;51092;50.874;7.024;2022-12-29T05:12:59;12.90;90.60
30889;DHT22;51092;50.874;7.024;2022-12-29T05:14:01;12.80;90.80
30889;DHT22;51092;50.874;7.024;2022-12-29T05:15:03;12.80;90.80
30889;DHT22;51092;50.874;7.024;2022-12-29T05:16:06;12.90;90.60
30889;DHT22;51092;50.874;7.024;2022-12-29T05:17:07;12.80;90.90
30889;DHT22;51092;50.874;7.024;2022-12-29T05:18:15;12.80;90.60
30889;DHT22;51092;50.874;7.024;2022-12-29T05:19:16;12.80;90.70
30889;DHT22;51092;50.874;7.024;2022-12-29T05:20:18;12.90;90.20
30889;DHT22;51092;50.874;7.024;2022-12-29T05:21:19;12.90;90.30
30889;DHT22;51092;50.874;7.024;2022-12-29T05:22:23;12.80;90.60
30889;DHT22;51092;50.874;7.024;2022-12-29T05:23:25;12.80;90.40
30889;DHT22;51092;50.874;7.024;2022-12-29T05:24:27;12.90;90.40
30889;DHT22;51092;50.874;7.024;2022-12-29T05:25:29;12.80;90.40
30889;DHT22;51092;50.874;7.024;2022-12-29T05:26:31;12.90;90.20
30889;DHT22;51092;50.874;7.024;2022-12-29T05:27:34;12.90;90.10
30889;DHT22;51092;50.874;7.024;2022-12-29T05:28:36;12.90;90.00
30889;DHT22;51092;50.874;7.024;2022-12-29T05:29:37;12.80;90.50
30889;DHT22;51092;50.874;7.024;2022-12-29T05:30:39;12.80;90.60
30889;DHT22;51092;50.874;7.024;2022-12-29T05:31:40;12.80;90.40
30889;DHT22;51092;50.874;7.024;2022-12-29T05:32:42;12.80;90.60
30889;DHT22;51092;50.874;7.024;2022-12-29T05:33:44;12.80;90.60
30889;DHT22;51092;50.874;7.024;2022-12-29T05:34:47;12.80;90.60
30889;DHT22;51092;50.874;7.024;2022-12-29T05:35:48;12.80;90.70
30889;DHT22;51092;50.874;7.024;2022-12-29T05:36:51;12.80;90.90
30889;DHT22;51092;50.874;7.024;2022-12-29T05:37:54;12.80;90.70
30889;DHT22;51092;50.874;7.024;2022-12-29T05:38:59;12.80;90.50
30889;DHT22;51092;50.874;7.024;2022-12-29T05:40:00;12.80;90.40
30889;DHT22;51092;50.874;7.024;2022-12-29T05:41:02;12.80;90.50
30889;DHT22;51092;50.874;7.024;2022-12-29T05:42:03;12.80;90.40
30889;DHT22;51092;50.874;7.024;2022-12-29T05:43:05;12.80;90.50
30889;DHT22;51092;50.874;7.024;2022-12-29T05:44:07;12.80;90.80
30889;DHT22;51092;50.874;7.024;2022-12-29T05:45:10;12.80;90.50
30889;DHT22;51092;50.874;7.024;2022-12-29T05:46:11;12.80;90.60
30889;DHT22;51092;50.874;7.024;2022-12-29T05:47:14;12.80;90.50
30889;DHT22;51092;50.874;7.024;2022-12-29T05:48:15;12.80;90.70
30889;DHT22;51092;50.874;7.024;2022-12-29T05:49:18;12.80;90.90
30889;DHT22;51092;50.874;7.024;2022-12-29T05:50:19;12.70;91.20
30889;DHT22;51092;50.874;7.024;2022-12-29T05:51:22;12.70;91.30
30889;DHT22;51092;50.874;7.024;2022-12-29T05:52:24;12.70;91.80
30889;DHT22;51092;50.874;7.024;2022-12-29T05:53:28;12.70;91.60
30889;DHT22;51092;50.874;7.024;2022-12-29T05:54:29;12.70;91.90
30889;DHT22;51092;50.874;7.024;2022-12-29T05:55:32;12.70;92.30
30889;DHT22;51092;50.874;7.024;2022-12-29T05:56:33;12.70;92.40
30889;DHT22;51092;50.874;7.024;2022-12-29T05:57:36;12.70;92.60
30889;DHT22;51092;50.874;7.024;2022-12-29T05:58:38;12.70;92.00
30889;DHT22;51092;50.874;7.024;2022-12-29T05:59:40;12.70;91.90
30889;DHT22;51092;50.874;7.024;2022-12-29T06:00:42;12.70;91.90
30889;DHT22;51092;50.874;7.024;2022-12-29T06:01:45;12.80;91.10
30889;DHT22;51092;50.874;7.024;2022-12-29T06:02:46;12.80;91.00
30889;DHT22;51092;50.874;7.024;2022-12-29T06:03:49;12.80;91.00
30889;DHT22;51092;50.874;7.024;2022-12-29T06:04:51;12.80;90.50
30889;DHT22;51092;50.874;7.024;2022-12-29T06:05:53;12.80;90.50
30889;DHT22;51092;50.874;7.024;2022-12-29T06:06:55;12.90;90.10
30889;DHT22;51092;50.874;7.024;2022-12-29T06:07:58;12.90;90.10
30889;DHT22;51092;50.874;7.024;2022-12-29T06:09:02;12.90;90.10
30889;DHT22;51092;50.874;7.024;2022-12-29T06:10:05;12.90;90.20
30889;DHT22;51092;50.874;7.024;2022-12-29T06:11:07;12.90;90.20
30889;DHT22;51092;50.874;7.024;2022-12-29T06:12:10;13.00;90.00
30889;DHT22;51092;50.874;7.024;2022-12-29T06:13:11;13.00;89.90
30889;DHT22;51092;50.874;7.024;2022-12-29T06:14:14;13.00;90.20
30889;DHT22;51092;50.874;7.024;2022-12-29T06:15:15;12.90;90.80
30889;DHT22;51092;50.874;7.024;2022-12-29T06:16:18;12.90;91.10
30889;DHT22;51092;50.874;7.024;2022-12-29T06:17:20;12.90;91.70
30889;DHT22;51092;50.874;7.024;2022-12-29T06:18:23;12.90;92.60
30889;DHT22;51092;50.874;7.024;2022-12-29T06:19:25;12.90;93.10
30889;DHT22;51092;50.874;7.024;2022-12-29T06:20:27;12.80;93.90
30889;DHT22;51092;50.874;7.024;2022-12-29T06:21:29;12.80;94.60
30889;DHT22;51092;50.874;7.024;2022-12-29T06:22:32;12.80;94.90
30889;DHT22;51092;50.874;7.024;2022-12-29T06:23:33;12.80;95.70
30889;DHT22;51092;50.874;7.024;2022-12-29T06:24:39;12.80;96.20
30889;DHT22;51092;50.874;7.024;2022-12-29T06:25:40;12.80;96.20
30889;DHT22;51092;50.874;7.024;2022-12-29T06:26:42;12.70;97.20
30889;DHT22;51092;50.874;7.024;2022-12-29T06:27:44;12.70;97.40
30889;DHT22;51092;50.874;7.024;2022-12-29T06:28:46;12.80;97.10
30889;DHT22;51092;50.874;7.024;2022-12-29T06:29:48;12.70;97.20
30889;DHT22;51092;50.874;7.024;2022-12-29T06:30:51;12.70;98.40
30889;DHT22;51092;50.874;7.024;2022-12-29T06:31:52;12.60;99.10
30889;DHT22;51092;50.874;7.024;2022-12-29T06:32:58;12.60;99.90
30889;DHT22;51092;50.874;7.024;2022-12-29T06:34:00;12.50;99.90
30889;DHT22;51092;50.874;7.024;2022-12-29T06:35:03;12.50;99.90
30889;DHT22;51092;50.874;7.024;2022-12-29T06:36:05;12.60;98.70
30889;DHT22;51092;50.874;7.024;2022-12-29T06:37:08;12.50;98.10
30889;DHT22;51092;50.874;7.024;2022-12-29T06:38:09;12.50;97.90
30889;DHT22;51092;50.874;7.024;2022-12-29T06:39:12;12.60;96.50
30889;DHT22;51092;50.874;7.024;2022-12-29T06:40:15;12.60;97.00
30889;DHT22;51092;50.874;7.024;2022-12-29T06:41:18;12.60;96.40
30889;DHT22;51092;50.874;7.024;2022-12-29T06:42:20;12.60;96.70
30889;DHT22;51092;50.874;7.024;2022-12-29T06:43:22;12.60;96.20
30889;DHT22;51092;50.874;7.024;2022-12-29T06:44:25;12.60;95.90
30889;DHT22;51092;50.874;7.024;2022-12-29T06:45:26;12.60;94.80
30889;DHT22;51092;50.874;7.024;2022-12-29T06:46:29;12.60;93.10
30889;DHT22;51092;50.874;7.024;2022-12-29T06:47:30;12.60;93.40
30889;DHT22;51092;50.874;7.024;2022-12-29T06:48:35;12.60;93.70
30889;DHT22;51092;50.874;7.024;2022-12-29T06:49:37;12.60;92.30
30889;DHT22;51092;50.874;7.024;2022-12-29T06:50:40;12.60;92.50
30889;DHT22;51092;50.874;7.024;2022-12-29T06:51:41;12.70;91.30
30889;DHT22;51092;50.874;7.024;2022-12-29T06:52:44;12.70;90.80
30889;DHT22;51092;50.874;7.024;2022-12-29T06:53:46;12.70;89.70
30889;DHT22;51092;50.874;7.024;2022-12-29T06:54:48;12.70;90.00
30889;DHT22;51092;50.874;7.024;2022-12-29T06:55:52;12.80;89.30